Lannion-Cote de Granit Airport


Codes: LFRO/LAI
Name: Lannion-Cote de Granit Airport
City: Lannion
Country: France
Elevation: 290 ft.

Photos at Lannion-Cote de Granit Airport


   Photos courtesy of SpottingLog. You can add your own sightings and photos by signing up for a free trial today.



No photos found.

Weather at Lannion-Cote de Granit Airport


Time (UTC)DescriptionTempratureWindCloud coverageVisibilityPressureHumidity
21-Feb-2024 03:00Overcast Clouds10°C20 mph, SW100%10000m1021hPa90%
21-Feb-2024 06:00Light Rain10°C22 mph, SW100%10000m1019hPa88%
21-Feb-2024 09:00Light Rain10°C27 mph, SW100%10000m1016hPa87%
21-Feb-2024 12:00Moderate Rain12°C29 mph, SW100%8940m1010hPa91%
21-Feb-2024 15:00Moderate Rain12°C20 mph, SW100%5962m1008hPa96%
21-Feb-2024 18:00Moderate Rain12°C13 mph, SW100%10000m1006hPa97%
21-Feb-2024 21:00Light Rain12°C13 mph, SW100%10000m1004hPa97%
22-Feb-2024 00:00Light Rain12°C16 mph, SW100%6932m1002hPa97%
22-Feb-2024 03:00Light Rain12°C18 mph, SW100%10000m999hPa95%
22-Feb-2024 06:00Overcast Clouds12°C20 mph, SW100%10000m994hPa92%
22-Feb-2024 09:00Light Rain12°C29 mph, SW100%10000m989hPa87%
22-Feb-2024 12:00Light Rain8°C31 mph, W89%10000m991hPa83%
22-Feb-2024 15:00Light Rain6°C29 mph, W99%10000m995hPa75%
22-Feb-2024 18:00Light Rain6°C25 mph, W82%10000m997hPa69%
22-Feb-2024 21:00Light Rain6°C25 mph, W78%10000m997hPa77%
23-Feb-2024 00:00Light Rain6°C20 mph, SW86%10000m997hPa76%
23-Feb-2024 03:00Light Rain6°C22 mph, W39%10000m995hPa78%
23-Feb-2024 06:00Light Rain6°C18 mph, W67%10000m994hPa81%
23-Feb-2024 09:00Moderate Rain2°C16 mph, SW94%3201m995hPa97%
23-Feb-2024 12:00Light Rain6°C20 mph, W97%10000m994hPa80%
23-Feb-2024 15:00Light Rain6°C22 mph, W97%10000m993hPa71%
23-Feb-2024 18:00Light Rain4°C20 mph, W93%10000m992hPa77%
23-Feb-2024 21:00Light Rain3°C11 mph, SW71%10000m993hPa82%
24-Feb-2024 00:00Light Rain3°C11 mph, SW84%10000m993hPa83%
24-Feb-2024 03:00Light Rain4°C16 mph, SW72%10000m993hPa82%
24-Feb-2024 06:00Light Rain7°C22 mph, W86%10000m992hPa76%
24-Feb-2024 09:00Light Rain6°C18 mph, W99%10000m993hPa85%
24-Feb-2024 12:00Light Rain9°C22 mph, NW83%10000m995hPa72%
24-Feb-2024 15:00Light Rain8°C25 mph, NW8%10000m998hPa72%
24-Feb-2024 18:00Light Rain7°C18 mph, NW9%10000m1001hPa74%
24-Feb-2024 21:00Light Rain6°C13 mph, W54%10000m1003hPa79%
25-Feb-2024 00:00Light Rain6°C11 mph, SW69%10000m1003hPa82%
25-Feb-2024 03:00Overcast Clouds5°C9 mph, SW100%10000m1001hPa86%
25-Feb-2024 06:00Overcast Clouds5°C11 mph, S100%10000m998hPa87%
25-Feb-2024 09:00Moderate Rain6°C18 mph, SE100%4892m993hPa93%
25-Feb-2024 12:00Light Rain9°C16 mph, S100%10000m988hPa92%
25-Feb-2024 15:00Light Rain12°C22 mph, SW100%10000m985hPa86%
25-Feb-2024 18:00Light Rain11°C25 mph, SW100%10000m984hPa87%
25-Feb-2024 21:00Overcast Clouds11°C20 mph, SW100%10000m983hPa87%
26-Feb-2024 00:00Light Rain10°C18 mph, SW100%10000m982hPa88%